EWG14A LEBL-EDDK
Flight info
| Callsign | EWG14A |
|---|---|
| Flight time | N/A |
| Altitude | 30000 |
| Route | DALIN N870 DIBER/N0432F360 DCT SECON DCT ODIXU/N0435F380 DCT MAXIR DCT LUSOL DCT BODRU DCT OKTET DCT IRMAR DCT KINES DCT VANAS DCT MOBLO DCT UBIMA DCT GILIR DCT PENDU DCT IXILU DCT GIVOR DCT SORAL DCT IBERA N853 DIK/N0435F370 N853 ARCKY T853 IBESA/N0372F230 T860 ERUKI ERUKI1E |
| Aircraft | A320/M-SDE3FGHIRWY/LB1 |
Departure
| Time | 2026-05-04 17:12 |
|---|---|
| Airport | Josep Tarradellas Barcelona-El Prat Airport (LEBL) |
Arrival
| Time | N/A |
|---|---|
| Airport | Cologne Bonn Airport (EDDK) |
| Time | Latitude | Longitude | Altitude | Speed | Heading |
|---|---|---|---|---|---|
| 2026-05-04 16:35 | 41.30102 | 2.07534 | 21 ft | 0 kts | 304° |
| 2026-05-04 16:51 | 41.30102 | 2.07535 | 21 ft | 0 kts | 304° |
| 2026-05-04 16:55 | 41.30101 | 2.07535 | 21 ft | 0 kts | 304° |
| 2026-05-04 17:00 | 41.30059 | 2.07614 | 22 ft | 4 kts | 305° |
| 2026-05-04 17:00 | 41.30010 | 2.07600 | 18 ft | 4 kts | 65° |
| 2026-05-04 17:01 | 41.30007 | 2.07594 | 18 ft | 0 kts | 65° |
| 2026-05-04 17:04 | 41.30057 | 2.07733 | 20 ft | 16 kts | 64° |
| 2026-05-04 17:04 | 41.30055 | 2.07979 | 17 ft | 17 kts | 156° |
| 2026-05-04 17:05 | 41.29910 | 2.08063 | 18 ft | 0 kts | 161° |
| 2026-05-04 17:06 | 41.29878 | 2.08078 | 18 ft | 17 kts | 161° |
| 2026-05-04 17:06 | 41.29742 | 2.08152 | 18 ft | 23 kts | 155° |
| 2026-05-04 17:07 | 41.29431 | 2.08338 | 20 ft | 25 kts | 156° |
| 2026-05-04 17:07 | 41.29327 | 2.08402 | 21 ft | 25 kts | 155° |
| 2026-05-04 17:07 | 41.29111 | 2.08531 | 18 ft | 27 kts | 155° |
| 2026-05-04 17:07 | 41.28937 | 2.08637 | 18 ft | 27 kts | 156° |
| 2026-05-04 17:08 | 41.28863 | 2.08739 | 17 ft | 13 kts | 68° |
| 2026-05-04 17:08 | 41.28968 | 2.09038 | 18 ft | 21 kts | 64° |
| 2026-05-04 17:08 | 41.29031 | 2.09225 | 17 ft | 22 kts | 65° |
| 2026-05-04 17:09 | 41.29095 | 2.09412 | 17 ft | 23 kts | 65° |
| 2026-05-04 17:09 | 41.29163 | 2.09610 | 17 ft | 24 kts | 65° |
| 2026-05-04 17:09 | 41.29234 | 2.09818 | 17 ft | 25 kts | 65° |
| 2026-05-04 17:10 | 41.29363 | 2.10226 | 15 ft | 18 kts | 108° |
| 2026-05-04 17:10 | 41.29275 | 2.10302 | 13 ft | 12 kts | 156° |
| 2026-05-04 17:11 | 41.29209 | 2.10300 | 17 ft | 12 kts | 235° |
| 2026-05-04 17:11 | 41.29093 | 2.09956 | 20 ft | 76 kts | 245° |
| 2026-05-04 17:11 | 41.28343 | 2.07759 | 243 ft | 161 kts | 245° |
| 2026-05-04 17:12 | 41.27768 | 2.06511 | 927 ft | 161 kts | 219° |
| 2026-05-04 17:12 | 41.25464 | 2.05875 | 1799 ft | 192 kts | 179° |
| 2026-05-04 17:13 | 41.21075 | 2.05786 | 3960 ft | 215 kts | 180° |
| 2026-05-04 17:14 | 41.16457 | 2.05650 | 5907 ft | 235 kts | 183° |
| 2026-05-04 17:14 | 41.14804 | 2.05575 | 5989 ft | 240 kts | 183° |
| 2026-05-04 17:14 | 41.11448 | 2.05407 | 6237 ft | 246 kts | 184° |
| 2026-05-04 17:15 | 41.09768 | 2.05320 | 7164 ft | 243 kts | 184° |
| 2026-05-04 17:15 | 41.06366 | 2.05152 | 9075 ft | 247 kts | 185° |
| 2026-05-04 17:16 | 41.02896 | 2.04988 | 10701 ft | 251 kts | 185° |
| 2026-05-04 17:16 | 40.98442 | 2.08731 | 12387 ft | 309 kts | 114° |
| 2026-05-04 17:17 | 40.97701 | 2.11530 | 12600 ft | 334 kts | 112° |
| 2026-05-04 17:17 | 40.95345 | 2.20884 | 14040 ft | 369 kts | 108° |
| 2026-05-04 17:18 | 40.95029 | 2.24292 | 14641 ft | 379 kts | 90° |
| 2026-05-04 17:18 | 40.96838 | 2.30805 | 15858 ft | 391 kts | 54° |
| 2026-05-04 17:19 | 41.00057 | 2.36713 | 17103 ft | 399 kts | 53° |
| 2026-05-04 17:19 | 41.03362 | 2.42704 | 18303 ft | 407 kts | 53° |
| 2026-05-04 17:20 | 41.06690 | 2.48797 | 18880 ft | 411 kts | 54° |
| 2026-05-04 17:20 | 41.10024 | 2.54964 | 18918 ft | 411 kts | 54° |
| 2026-05-04 17:20 | 41.11690 | 2.58051 | 18921 ft | 411 kts | 54° |
| 2026-05-04 17:21 | 41.15015 | 2.64215 | 18926 ft | 410 kts | 54° |
| 2026-05-04 17:21 | 41.18336 | 2.70379 | 18920 ft | 410 kts | 54° |
| 2026-05-04 17:22 | 41.19995 | 2.73457 | 18922 ft | 410 kts | 54° |
| 2026-05-04 17:22 | 41.21651 | 2.76536 | 18923 ft | 410 kts | 54° |
| 2026-05-04 17:23 | 41.26612 | 2.85778 | 18924 ft | 409 kts | 54° |
| 2026-05-04 17:23 | 41.28241 | 2.88822 | 18926 ft | 409 kts | 54° |
| 2026-05-04 17:23 | 41.31532 | 2.94987 | 18926 ft | 409 kts | 54° |
| 2026-05-04 17:24 | 41.33178 | 2.98067 | 18925 ft | 408 kts | 54° |
| 2026-05-04 17:24 | 41.38120 | 3.07313 | 18921 ft | 408 kts | 55° |
| 2026-05-04 17:25 | 41.39759 | 3.10399 | 18921 ft | 408 kts | 55° |
| 2026-05-04 17:25 | 41.43039 | 3.16576 | 18922 ft | 408 kts | 55° |
| 2026-05-04 17:26 | 41.46308 | 3.22746 | 18919 ft | 407 kts | 55° |
| 2026-05-04 17:26 | 41.51194 | 3.31984 | 18925 ft | 407 kts | 55° |
| 2026-05-04 17:27 | 41.54451 | 3.38158 | 18922 ft | 406 kts | 56° |
| 2026-05-04 17:27 | 41.57702 | 3.44331 | 18920 ft | 406 kts | 56° |
| 2026-05-04 17:28 | 41.60919 | 3.50467 | 18920 ft | 406 kts | 56° |
| 2026-05-04 17:29 | 41.65775 | 3.59728 | 18920 ft | 405 kts | 56° |
| 2026-05-04 17:29 | 41.70614 | 3.69000 | 18918 ft | 405 kts | 56° |
| 2026-05-04 17:30 | 41.75454 | 3.78305 | 19353 ft | 409 kts | 56° |
| 2026-05-04 17:31 | 41.78726 | 3.84606 | 20442 ft | 415 kts | 56° |
| 2026-05-04 17:31 | 41.83729 | 3.94252 | 21952 ft | 425 kts | 55° |
| 2026-05-04 17:32 | 41.87125 | 4.00822 | 22917 ft | 432 kts | 55° |
| 2026-05-04 17:33 | 41.92307 | 4.10886 | 24176 ft | 442 kts | 56° |
| 2026-05-04 17:33 | 41.94055 | 4.14295 | 24570 ft | 444 kts | 56° |
| 2026-05-04 17:34 | 41.99374 | 4.24667 | 25766 ft | 454 kts | 56° |
| 2026-05-04 17:34 | 42.01150 | 4.28129 | 26139 ft | 456 kts | 56° |
| 2026-05-04 17:35 | 42.06643 | 4.38725 | 27215 ft | 464 kts | 51° |
| 2026-05-04 17:35 | 42.11417 | 4.44628 | 27901 ft | 469 kts | 33° |
| 2026-05-04 17:35 | 42.14140 | 4.47084 | 28245 ft | 472 kts | 33° |
| 2026-05-04 17:36 | 42.16874 | 4.49557 | 28593 ft | 474 kts | 33° |
| 2026-05-04 17:36 | 42.19617 | 4.52048 | 28942 ft | 477 kts | 33° |
| 2026-05-04 17:36 | 42.22383 | 4.54569 | 29261 ft | 480 kts | 33° |
| 2026-05-04 17:36 | 42.25153 | 4.57098 | 29574 ft | 482 kts | 33° |
| 2026-05-04 17:37 | 42.27903 | 4.59611 | 29882 ft | 485 kts | 33° |
| 2026-05-04 17:37 | 42.30704 | 4.62175 | 30159 ft | 487 kts | 33° |
| 2026-05-04 17:37 | 42.33519 | 4.64753 | 30417 ft | 490 kts | 33° |
| 2026-05-04 17:37 | 42.36346 | 4.67341 | 30656 ft | 492 kts | 33° |
| 2026-05-04 17:38 | 42.39187 | 4.69940 | 30902 ft | 494 kts | 33° |
| 2026-05-04 17:38 | 42.42041 | 4.72561 | 31152 ft | 497 kts | 33° |
| 2026-05-04 17:38 | 42.44901 | 4.75196 | 31429 ft | 498 kts | 33° |
| 2026-05-04 17:38 | 42.47767 | 4.77840 | 31778 ft | 497 kts | 33° |
| 2026-05-04 17:39 | 42.53488 | 4.83108 | 32468 ft | 497 kts | 33° |
| 2026-05-04 17:39 | 42.56352 | 4.85747 | 32790 ft | 498 kts | 33° |
| 2026-05-04 17:39 | 42.59218 | 4.88393 | 32940 ft | 496 kts | 33° |
| 2026-05-04 17:40 | 42.64828 | 4.93592 | 32961 ft | 484 kts | 33° |
| 2026-05-04 17:40 | 42.70384 | 4.98743 | 32966 ft | 483 kts | 33° |
| 2026-05-04 17:41 | 42.75930 | 5.03890 | 32971 ft | 482 kts | 33° |
| 2026-05-04 17:41 | 42.81389 | 5.09116 | 32972 ft | 483 kts | 39° |
| 2026-05-04 17:42 | 42.85961 | 5.15819 | 32979 ft | 483 kts | 53° |
| 2026-05-04 17:42 | 42.89367 | 5.21836 | 32970 ft | 482 kts | 53° |
| 2026-05-04 17:43 | 42.93486 | 5.29068 | 32964 ft | 482 kts | 53° |
| 2026-05-04 17:43 | 42.97594 | 5.36319 | 32969 ft | 483 kts | 53° |
| 2026-05-04 17:44 | 43.01692 | 5.43588 | 32971 ft | 483 kts | 53° |
| 2026-05-04 17:44 | 43.05793 | 5.50885 | 32973 ft | 483 kts | 53° |
| 2026-05-04 17:45 | 43.09879 | 5.58182 | 32979 ft | 483 kts | 52° |
| 2026-05-04 17:45 | 43.14208 | 5.65231 | 32985 ft | 484 kts | 48° |
| 2026-05-04 17:46 | 43.18739 | 5.71959 | 32989 ft | 484 kts | 47° |
| 2026-05-04 17:46 | 43.23296 | 5.78761 | 32993 ft | 484 kts | 48° |
| 2026-05-04 17:47 | 43.27769 | 5.85667 | 32994 ft | 484 kts | 49° |
| 2026-05-04 17:47 | 43.32205 | 5.92623 | 32995 ft | 484 kts | 49° |
| 2026-05-04 17:48 | 43.36957 | 5.99142 | 33018 ft | 483 kts | 34° |
| 2026-05-04 17:48 | 43.42832 | 6.03415 | 33024 ft | 475 kts | 14° |
| 2026-05-04 17:49 | 43.49240 | 6.05028 | 33021 ft | 465 kts | 359° |
| 2026-05-04 17:49 | 43.55670 | 6.05646 | 33026 ft | 466 kts | 359° |
| 2026-05-04 17:50 | 43.62145 | 6.06307 | 33025 ft | 466 kts | 359° |
| 2026-05-04 17:50 | 43.68618 | 6.06974 | 33032 ft | 466 kts | 359° |
| 2026-05-04 17:51 | 43.75084 | 6.07788 | 33036 ft | 470 kts | 6° |
| 2026-05-04 17:51 | 43.81325 | 6.10680 | 33038 ft | 478 kts | 24° |
| 2026-05-04 17:52 | 43.87292 | 6.14759 | 33038 ft | 478 kts | 23° |
| 2026-05-04 17:52 | 43.93224 | 6.18792 | 33048 ft | 478 kts | 23° |
| 2026-05-04 17:53 | 43.99187 | 6.22863 | 33049 ft | 477 kts | 23° |
| 2026-05-04 17:53 | 44.05145 | 6.26950 | 33055 ft | 477 kts | 23° |
| 2026-05-04 17:54 | 44.11087 | 6.31031 | 33058 ft | 476 kts | 23° |
| 2026-05-04 17:54 | 44.17029 | 6.35119 | 33066 ft | 476 kts | 23° |
| 2026-05-04 17:55 | 44.22960 | 6.39219 | 33071 ft | 475 kts | 24° |
| 2026-05-04 17:55 | 44.28887 | 6.43313 | 33081 ft | 475 kts | 24° |
| 2026-05-04 17:56 | 44.34816 | 6.47416 | 33094 ft | 474 kts | 23° |
| 2026-05-04 17:56 | 44.40690 | 6.51499 | 33103 ft | 474 kts | 24° |
| 2026-05-04 17:57 | 44.46593 | 6.55610 | 33111 ft | 474 kts | 24° |
| 2026-05-04 17:57 | 44.52494 | 6.59734 | 33125 ft | 473 kts | 24° |
| 2026-05-04 17:58 | 44.58385 | 6.63850 | 33128 ft | 472 kts | 24° |
| 2026-05-04 17:58 | 44.64255 | 6.67959 | 33132 ft | 471 kts | 24° |
| 2026-05-04 17:59 | 44.70123 | 6.72080 | 33141 ft | 471 kts | 24° |
| 2026-05-04 18:00 | 44.79041 | 6.77666 | 33153 ft | 464 kts | 11° |
| 2026-05-04 18:00 | 44.85314 | 6.78703 | 33157 ft | 452 kts | 353° |
| 2026-05-04 18:01 | 44.91589 | 6.78296 | 33147 ft | 451 kts | 353° |
| 2026-05-04 18:01 | 44.97869 | 6.77876 | 33148 ft | 451 kts | 353° |
| 2026-05-04 18:02 | 45.07268 | 6.77236 | 33130 ft | 451 kts | 353° |
| 2026-05-04 18:02 | 45.13510 | 6.76824 | 33124 ft | 452 kts | 353° |
| 2026-05-04 18:03 | 45.19796 | 6.76409 | 33118 ft | 452 kts | 353° |
| 2026-05-04 18:03 | 45.26090 | 6.75981 | 33114 ft | 453 kts | 353° |
| 2026-05-04 18:04 | 45.32393 | 6.75555 | 33099 ft | 453 kts | 352° |
| 2026-05-04 18:05 | 45.41828 | 6.74626 | 33090 ft | 453 kts | 351° |
| 2026-05-04 18:05 | 45.48081 | 6.73929 | 33087 ft | 454 kts | 351° |
| 2026-05-04 18:06 | 45.57546 | 6.72931 | 33079 ft | 454 kts | 351° |
| 2026-05-04 18:06 | 45.63853 | 6.72290 | 33076 ft | 455 kts | 351° |
| 2026-05-04 18:07 | 45.70168 | 6.71644 | 33068 ft | 455 kts | 351° |
| 2026-05-04 18:07 | 45.76492 | 6.70986 | 33059 ft | 455 kts | 351° |
| 2026-05-04 18:08 | 45.82813 | 6.70318 | 33057 ft | 456 kts | 351° |
| 2026-05-04 18:08 | 45.89142 | 6.69659 | 33056 ft | 456 kts | 351° |
| 2026-05-04 18:09 | 46.01765 | 6.68338 | 33057 ft | 456 kts | 351° |
| 2026-05-04 18:10 | 46.08107 | 6.67673 | 33051 ft | 456 kts | 351° |
| 2026-05-04 18:10 | 46.14441 | 6.66999 | 33051 ft | 457 kts | 351° |
| 2026-05-04 18:11 | 46.20785 | 6.66322 | 33043 ft | 456 kts | 351° |
| 2026-05-04 18:11 | 46.27120 | 6.65641 | 33047 ft | 457 kts | 351° |
| 2026-05-04 18:12 | 46.33462 | 6.64980 | 33052 ft | 456 kts | 352° |
| 2026-05-04 18:12 | 46.39763 | 6.64317 | 33049 ft | 457 kts | 352° |
| 2026-05-04 18:13 | 46.46114 | 6.63636 | 33046 ft | 457 kts | 352° |
| 2026-05-04 18:14 | 46.55642 | 6.62602 | 33045 ft | 458 kts | 352° |
| 2026-05-04 18:14 | 46.61999 | 6.61922 | 33046 ft | 458 kts | 352° |
| 2026-05-04 18:15 | 46.74717 | 6.60557 | 33035 ft | 458 kts | 352° |
| 2026-05-04 18:16 | 46.81040 | 6.59873 | 33035 ft | 459 kts | 352° |
| 2026-05-04 18:16 | 46.87412 | 6.59164 | 33033 ft | 459 kts | 352° |
| 2026-05-04 18:17 | 46.96976 | 6.58142 | 33028 ft | 459 kts | 353° |
| 2026-05-04 18:18 | 47.06544 | 6.57104 | 33024 ft | 460 kts | 353° |
| 2026-05-04 18:18 | 47.12888 | 6.56404 | 33024 ft | 460 kts | 353° |
| 2026-05-04 18:19 | 47.22472 | 6.55340 | 33025 ft | 460 kts | 353° |
| 2026-05-04 18:19 | 47.28858 | 6.54640 | 33021 ft | 460 kts | 353° |
| 2026-05-04 18:20 | 47.35249 | 6.53935 | 33008 ft | 460 kts | 353° |
| 2026-05-04 18:20 | 47.41617 | 6.53231 | 33004 ft | 460 kts | 353° |